createdAt,value
2022-08-05T00:00:54.219Z,4.15
2022-08-05T00:03:20.933Z,4.07
2022-08-05T00:06:04.909Z,4.22
2022-08-05T00:08:36.745Z,3.95
2022-08-05T00:11:20.612Z,3.97
2022-08-05T00:13:54.472Z,4.10
2022-08-05T00:16:36.264Z,4.70
2022-08-05T00:19:08.681Z,4.22
2022-08-05T00:21:35.982Z,4.25
2022-08-05T00:24:09.816Z,3.97
2022-08-05T00:29:04.263Z,4.22
2022-08-05T00:31:53.986Z,4.78
2022-08-05T00:34:56.865Z,4.43
2022-08-05T00:37:12.338Z,4.43
2022-08-05T00:39:44.163Z,3.97
2022-08-05T00:42:32.379Z,4.22
2022-08-05T00:44:59.978Z,5.03
2022-08-05T00:47:31.778Z,4.15
2022-08-05T00:50:13.642Z,4.30
2022-08-05T00:52:41.892Z,4.20
2022-08-05T00:55:12.338Z,4.30
2022-08-05T00:57:57.832Z,4.65
2022-08-05T01:00:27.236Z,4.47
2022-08-05T01:02:54.367Z,4.97
2022-08-05T01:05:21.555Z,4.72
2022-08-05T01:08:30.731Z,4.90
2022-08-05T01:10:51.622Z,4.80
2022-08-05T01:13:58.612Z,4.45
2022-08-05T01:16:38.358Z,4.53
2022-08-05T01:19:30.208Z,4.63
2022-08-05T01:25:02.898Z,5.15
2022-08-05T01:27:59.847Z,5.22
2022-08-05T01:30:34.550Z,5.30
2022-08-05T01:33:06.293Z,4.97
2022-08-05T01:35:50.956Z,4.88
2022-08-05T01:40:57.377Z,5.60
2022-08-05T01:43:26.313Z,5.47
2022-08-05T01:45:56.397Z,5.00
2022-08-05T01:48:29.244Z,5.07
2022-08-05T01:50:57.590Z,5.60
2022-08-05T01:53:54.962Z,4.85
2022-08-05T01:58:10.722Z,5.38
2022-08-05T01:59:06.947Z,5.65
2022-08-05T02:01:39.882Z,5.25
2022-08-05T02:04:09.006Z,5.45
2022-08-05T02:06:38.948Z,5.50
2022-08-05T02:09:07.126Z,5.93
2022-08-05T02:11:48.099Z,5.65
2022-08-05T02:14:31.882Z,5.22
2022-08-05T02:17:06.886Z,5.50
2022-08-05T02:19:40.613Z,6.07
2022-08-05T02:22:26.742Z,5.55
2022-08-05T02:25:02.264Z,5.50
2022-08-05T02:27:59.427Z,5.65
2022-08-05T02:30:20.566Z,6.05
2022-08-05T02:32:51.945Z,5.25
2022-08-05T02:35:28.186Z,6.05
2022-08-05T02:38:02.315Z,5.80
2022-08-05T02:40:30.002Z,5.50
2022-08-05T02:42:58.774Z,5.57
2022-08-05T02:45:26.686Z,5.10
2022-08-05T02:48:09.821Z,5.63
2022-08-05T02:50:43.951Z,5.20
2022-08-05T02:53:18.848Z,5.10
2022-08-05T02:55:55.315Z,5.50
2022-08-05T02:58:28.904Z,5.03
2022-08-05T03:01:01.846Z,5.53
2022-08-05T03:03:33.574Z,5.55
2022-08-05T03:06:54.300Z,5.50
2022-08-05T03:08:52.325Z,5.85
2022-08-05T03:11:53.307Z,5.25
2022-08-05T03:14:13.591Z,6.25
2022-08-05T03:16:40.902Z,5.85
2022-08-05T03:19:17.239Z,5.50
2022-08-05T03:21:54.696Z,5.60
2022-08-05T03:24:29.940Z,5.90
2022-08-05T03:26:58.503Z,5.57
2022-08-05T03:29:45.216Z,5.75
2022-08-05T03:32:14.447Z,5.57
2022-08-05T03:34:42.494Z,5.53
2022-08-05T03:37:17.701Z,5.63
2022-08-05T03:40:01.582Z,5.88
2022-08-05T03:42:32.144Z,6.22
2022-08-05T03:44:59.353Z,6.20
2022-08-05T03:47:30.420Z,6.13
2022-08-05T03:50:01.736Z,6.57
2022-08-05T03:52:50.492Z,6.18
2022-08-05T03:56:04.809Z,6.97
2022-08-05T03:58:21.485Z,6.57
2022-08-05T04:00:59.958Z,6.68
2022-08-05T04:03:29.395Z,6.30
2022-08-05T04:05:57.805Z,6.45
2022-08-05T04:08:34.883Z,6.25
2022-08-05T04:11:05.127Z,6.75
2022-08-05T04:13:50.506Z,6.00
2022-08-05T04:16:25.563Z,6.10
2022-08-05T04:18:59.952Z,6.50
2022-08-05T04:22:10.215Z,6.28
2022-08-05T04:24:18.762Z,6.32
2022-08-05T04:26:45.688Z,6.13
2022-08-05T04:29:13.360Z,6.13
2022-08-05T04:31:41.197Z,5.50
2022-08-05T04:34:31.756Z,6.03
2022-08-05T04:36:56.531Z,6.35
2022-08-05T04:39:23.840Z,6.35
2022-08-05T04:41:51.387Z,5.95
2022-08-05T04:44:21.545Z,6.22
2022-08-05T04:46:57.217Z,6.00
2022-08-05T04:49:38.348Z,6.07
2022-08-05T04:52:12.262Z,6.60
2022-08-05T04:54:38.929Z,5.88
2022-08-05T04:57:05.651Z,6.22
2022-08-05T04:59:36.607Z,6.00
2022-08-05T05:02:08.338Z,6.18
2022-08-05T05:04:51.982Z,5.95
2022-08-05T05:07:18.769Z,6.05
2022-08-05T05:09:55.929Z,6.53
2022-08-05T05:12:24.320Z,13.68
2022-08-05T05:14:54.322Z,17.52
2022-08-05T05:17:24.329Z,8.05
2022-08-05T05:19:54.788Z,6.38
2022-08-05T05:22:22.608Z,6.10
2022-08-05T05:24:57.446Z,6.25
2022-08-05T05:27:44.838Z,6.00
2022-08-05T05:30:29.304Z,5.68
2022-08-05T05:33:00.933Z,6.20
2022-08-05T05:35:39.647Z,5.95
2022-08-05T05:38:13.201Z,5.93
2022-08-05T05:40:48.111Z,5.60
2022-08-05T05:43:27.736Z,5.30
2022-08-05T05:46:03.635Z,5.60
2022-08-05T05:48:32.235Z,5.65
2022-08-05T05:51:15.273Z,5.43
2022-08-05T05:53:54.026Z,5.93
2022-08-05T05:56:26.080Z,5.32
2022-08-05T05:59:03.241Z,5.85
2022-08-05T06:01:37.396Z,5.30
2022-08-05T06:04:07.311Z,6.10
2022-08-05T06:06:35.110Z,5.80
2022-08-05T06:09:04.064Z,6.82
2022-08-05T06:11:31.633Z,8.13
2022-08-05T06:14:00.384Z,6.32
2022-08-05T06:16:33.051Z,5.65
2022-08-05T06:19:05.830Z,5.80
2022-08-05T06:21:36.770Z,6.15
2022-08-05T06:24:06.298Z,5.93
2022-08-05T06:29:06.439Z,5.60
2022-08-05T06:31:52.106Z,5.68
2022-08-05T06:34:20.066Z,5.50
2022-08-05T06:36:56.738Z,5.90
2022-08-05T06:39:26.783Z,5.20
2022-08-05T06:41:59.212Z,5.50
2022-08-05T06:44:26.134Z,5.90
2022-08-05T06:46:52.855Z,5.68
2022-08-05T06:49:50.560Z,5.38
2022-08-05T06:52:08.186Z,5.00
2022-08-05T06:54:54.844Z,5.15
2022-08-05T06:58:03.493Z,4.80
2022-08-05T07:03:09.800Z,4.30
2022-08-05T07:05:37.783Z,4.38
2022-08-05T07:08:10.708Z,4.80
2022-08-05T07:10:39.095Z,3.90
2022-08-05T07:13:58.571Z,3.95
2022-08-05T07:18:00.372Z,4.03
2022-08-05T07:22:28.390Z,4.13
2022-08-05T07:24:58.699Z,5.53
2022-08-05T07:27:27.525Z,4.07
2022-08-05T07:30:28.053Z,3.65
2022-08-05T07:32:59.503Z,3.40
2022-08-05T07:36:03.642Z,3.67
2022-08-05T07:38:32.196Z,3.65
2022-08-05T07:41:04.421Z,3.67
2022-08-05T07:43:46.737Z,3.75
2022-08-05T07:46:24.783Z,3.30
2022-08-05T07:49:02.269Z,3.35
2022-08-05T07:51:48.427Z,3.45
2022-08-05T07:54:26.591Z,3.33
2022-08-05T07:59:53.663Z,2.60
2022-08-05T08:02:31.421Z,2.65
2022-08-05T08:05:14.117Z,2.00
2022-08-05T08:08:00.243Z,2.20
2022-08-05T08:10:27.691Z,2.50
2022-08-05T08:12:54.420Z,1.95
2022-08-05T08:22:09.057Z,2.40
2022-08-05T08:24:51.087Z,1.85
2022-08-05T08:27:19.559Z,1.80
2022-08-05T08:30:05.360Z,1.63
2022-08-05T08:32:41.699Z,2.15
2022-08-05T08:35:18.245Z,2.25
2022-08-05T08:37:46.091Z,1.92
2022-08-05T08:40:20.289Z,1.90
2022-08-05T08:42:52.448Z,2.10
2022-08-05T08:45:26.524Z,2.08
2022-08-05T08:48:07.319Z,2.22
2022-08-05T08:51:03.631Z,1.98
2022-08-05T08:53:36.010Z,2.00
2022-08-05T08:56:06.062Z,2.15
2022-08-05T08:58:43.347Z,2.20
2022-08-05T09:01:15.848Z,4.15
2022-08-05T09:03:47.411Z,2.13
2022-08-05T09:06:17.187Z,2.17
2022-08-05T09:08:45.316Z,2.25
2022-08-05T09:11:13.916Z,2.33
2022-08-05T09:14:10.167Z,2.17
2022-08-05T09:16:30.045Z,2.20
2022-08-05T09:18:59.447Z,1.77
2022-08-05T09:22:17.858Z,1.77
2022-08-05T09:24:15.595Z,2.28
2022-08-05T09:26:47.469Z,1.65
2022-08-05T09:29:19.182Z,1.55
2022-08-05T09:32:42.299Z,1.52
2022-08-05T09:34:56.025Z,2.00
2022-08-05T09:38:17.719Z,1.70
2022-08-05T09:40:37.886Z,1.80
2022-08-05T09:43:10.410Z,1.73
2022-08-05T09:46:06.176Z,1.85
2022-08-05T09:48:34.411Z,1.80
2022-08-05T09:51:04.339Z,1.90
2022-08-05T09:53:53.662Z,1.60
2022-08-05T09:56:30.335Z,1.70
2022-08-05T09:58:58.114Z,1.67
2022-08-05T10:01:32.324Z,1.58
2022-08-05T10:04:28.657Z,1.40
2022-08-05T10:06:59.590Z,1.70
2022-08-05T10:09:29.516Z,1.70
2022-08-05T10:12:30.615Z,1.75
2022-08-05T10:15:23.595Z,1.60
2022-08-05T10:18:17.532Z,1.60
2022-08-05T10:21:11.748Z,1.45
2022-08-05T10:24:00.150Z,1.42
2022-08-05T10:26:31.583Z,1.80
2022-08-05T10:28:59.635Z,1.40
2022-08-05T10:32:53.047Z,1.33
2022-08-05T10:34:13.830Z,1.55
2022-08-05T10:36:41.998Z,1.70
2022-08-05T10:39:24.484Z,1.60
2022-08-05T10:42:18.415Z,1.70
2022-08-05T10:44:49.504Z,1.75
2022-08-05T10:47:26.457Z,1.75
2022-08-05T10:50:33.096Z,1.67
2022-08-05T10:52:59.812Z,1.45
2022-08-05T10:55:27.753Z,1.73
2022-08-05T10:58:20.974Z,1.67
2022-08-05T11:00:48.500Z,1.80
2022-08-05T11:03:25.434Z,1.98
2022-08-05T11:06:16.155Z,1.70
2022-08-05T11:09:31.864Z,1.95
2022-08-05T11:12:06.117Z,2.40
2022-08-05T11:18:00.249Z,2.00
2022-08-05T11:20:46.351Z,2.45
2022-08-05T11:24:05.092Z,2.08
2022-08-05T11:26:40.317Z,2.20
2022-08-05T11:29:13.811Z,2.08
2022-08-05T11:31:56.561Z,2.08
2022-08-05T11:34:37.918Z,2.20
2022-08-05T11:37:06.057Z,2.35
2022-08-05T11:39:55.386Z,2.00
2022-08-05T11:42:28.336Z,2.33
2022-08-05T11:45:03.466Z,2.33
2022-08-05T11:47:48.854Z,2.55
2022-08-05T11:50:17.706Z,2.80
2022-08-05T11:52:48.780Z,2.65
2022-08-05T11:55:17.228Z,2.28
2022-08-05T11:58:10.145Z,3.05
2022-08-05T12:00:38.087Z,2.70
2022-08-05T12:03:28.386Z,2.67
2022-08-05T12:06:01.761Z,2.70
2022-08-05T12:08:28.983Z,2.50
2022-08-05T12:11:05.709Z,2.85
2022-08-05T12:13:49.285Z,2.45
2022-08-05T12:16:19.206Z,2.20
2022-08-05T12:18:52.484Z,2.55
2022-08-05T12:21:30.336Z,2.60
2022-08-05T12:24:06.710Z,2.83
2022-08-05T12:26:36.430Z,2.90
2022-08-05T12:29:09.458Z,2.13
2022-08-05T12:31:46.246Z,2.30
2022-08-05T12:34:20.554Z,2.53
2022-08-05T12:36:50.245Z,2.38
2022-08-05T12:39:17.793Z,2.30
2022-08-05T12:41:45.390Z,2.15
2022-08-05T12:44:14.617Z,2.13
2022-08-05T12:46:56.289Z,2.25
2022-08-05T12:49:25.565Z,2.53
2022-08-05T12:52:14.263Z,2.30
2022-08-05T12:54:49.662Z,1.93
2022-08-05T12:57:17.189Z,1.90
2022-08-05T13:01:56.797Z,1.50
2022-08-05T13:02:37.352Z,2.20
2022-08-05T13:05:07.617Z,1.98
2022-08-05T13:10:21.901Z,1.83
2022-08-05T13:12:57.120Z,1.75
2022-08-05T13:15:35.922Z,1.75
2022-08-05T13:18:19.688Z,1.52
2022-08-05T13:20:49.401Z,1.80
2022-08-05T13:23:18.302Z,1.77
2022-08-05T13:25:51.806Z,1.77
2022-08-05T13:28:25.814Z,1.80
2022-08-05T13:30:53.465Z,1.80
2022-08-05T13:34:23.460Z,2.00
2022-08-05T13:36:09.495Z,1.55
2022-08-05T13:38:38.561Z,1.70
2022-08-05T13:41:09.972Z,1.55
2022-08-05T13:43:45.475Z,1.80
2022-08-05T13:47:01.928Z,1.70
2022-08-05T13:49:10.312Z,1.65
2022-08-05T13:51:41.543Z,1.60
2022-08-05T13:54:11.914Z,1.80
2022-08-05T13:56:45.295Z,2.15
2022-08-05T13:59:20.155Z,1.90
2022-08-05T14:01:57.469Z,1.95
2022-08-05T14:04:52.194Z,1.80
2022-08-05T14:07:25.668Z,1.80
2022-08-05T14:10:09.592Z,1.65
2022-08-05T14:12:36.787Z,1.80
2022-08-05T14:15:06.050Z,1.90
2022-08-05T14:17:51.832Z,1.73
2022-08-05T14:20:22.022Z,1.60
2022-08-05T14:22:54.339Z,1.63
2022-08-05T14:25:22.485Z,1.60
2022-08-05T14:30:21.535Z,1.80
2022-08-05T14:32:49.037Z,2.00
2022-08-05T14:35:16.212Z,2.15
2022-08-05T14:37:52.149Z,2.30
2022-08-05T14:40:24.492Z,2.22
2022-08-05T14:42:51.864Z,2.42
2022-08-05T14:45:18.692Z,2.38
2022-08-05T14:48:02.513Z,2.00
2022-08-05T14:50:31.017Z,2.08
2022-08-05T14:52:59.562Z,2.35
2022-08-05T14:55:28.778Z,2.20
2022-08-05T14:58:12.171Z,2.20
2022-08-05T15:00:59.787Z,2.58
2022-08-05T15:03:33.142Z,2.00
2022-08-05T15:06:07.756Z,2.15
2022-08-05T15:08:59.390Z,2.33
2022-08-05T15:11:51.651Z,2.00
2022-08-05T15:14:33.348Z,2.00
2022-08-05T15:17:01.155Z,1.98
2022-08-05T15:19:27.944Z,2.20
2022-08-05T15:21:58.005Z,2.25
2022-08-05T15:24:27.554Z,2.20
2022-08-05T15:26:55.997Z,2.15
2022-08-05T15:29:29.779Z,1.85
2022-08-05T15:31:57.706Z,2.08
2022-08-05T15:34:33.184Z,2.08
2022-08-05T15:37:06.112Z,2.58
2022-08-05T15:40:59.226Z,2.00
2022-08-05T15:42:56.706Z,2.22
2022-08-05T15:45:07.612Z,2.20
2022-08-05T15:47:37.301Z,2.15
2022-08-05T15:50:07.206Z,2.20
2022-08-05T15:52:53.621Z,2.28
2022-08-05T15:55:24.554Z,1.88
2022-08-05T15:57:51.621Z,2.47
2022-08-05T16:00:26.124Z,2.10
2022-08-05T16:03:05.943Z,2.20
2022-08-05T16:05:32.614Z,2.47
2022-08-05T16:07:59.283Z,2.15
2022-08-05T16:10:27.101Z,2.30
2022-08-05T16:12:56.010Z,2.35
2022-08-05T16:15:23.596Z,2.30
2022-08-05T16:17:57.801Z,2.38
2022-08-05T16:20:25.452Z,2.60
2022-08-05T16:22:52.201Z,2.38
2022-08-05T16:25:18.867Z,2.25
2022-08-05T16:27:59.740Z,2.60
2022-08-05T16:30:32.319Z,2.65
2022-08-05T16:32:59.564Z,2.85
2022-08-05T16:35:28.611Z,2.78
2022-08-05T16:43:26.546Z,2.80
2022-08-05T16:46:07.434Z,2.90
2022-08-05T16:48:39.799Z,3.03
2022-08-05T16:51:09.186Z,3.00
2022-08-05T16:54:03.991Z,2.97
2022-08-05T16:56:25.070Z,2.85
2022-08-05T16:58:52.020Z,2.65
2022-08-05T17:01:19.123Z,2.75
2022-08-05T17:03:46.436Z,3.15
2022-08-05T17:06:16.392Z,2.85
2022-08-05T17:08:52.741Z,2.92
2022-08-05T17:11:24.992Z,2.72
2022-08-05T17:14:00.413Z,2.88
2022-08-05T17:16:36.173Z,2.80
2022-08-05T17:19:07.472Z,2.72
2022-08-05T17:21:36.082Z,2.78
2022-08-05T17:24:30.375Z,2.63
2022-08-05T17:26:56.253Z,2.78
2022-08-05T17:29:33.375Z,2.83
2022-08-05T17:32:06.812Z,2.75
2022-08-05T17:34:35.261Z,2.80
2022-08-05T17:37:02.043Z,2.65
2022-08-05T17:39:33.902Z,2.53
2022-08-05T17:42:18.981Z,2.75
2022-08-05T17:44:50.435Z,2.80
2022-08-05T17:47:22.047Z,3.03
2022-08-05T17:49:59.780Z,2.70
2022-08-05T17:52:30.957Z,2.90
2022-08-05T17:54:57.961Z,3.50
2022-08-05T17:57:24.701Z,3.45
2022-08-05T18:00:03.548Z,3.08
2022-08-05T18:02:32.965Z,2.63
2022-08-05T18:05:02.792Z,2.78
2022-08-05T18:07:40.855Z,2.63
2022-08-05T18:10:11.034Z,2.30
2022-08-05T18:12:38.516Z,2.30
2022-08-05T18:15:06.415Z,1.80
2022-08-05T18:18:01.356Z,2.15
2022-08-05T18:20:28.942Z,2.05
2022-08-05T18:22:57.409Z,2.20
2022-08-05T18:25:25.111Z,2.08
2022-08-05T18:27:52.800Z,1.95
2022-08-05T18:30:19.761Z,2.20
2022-08-05T18:32:53.111Z,1.80
2022-08-05T18:38:08.873Z,1.50
2022-08-05T18:41:53.730Z,1.67
2022-08-05T18:43:23.186Z,1.80
2022-08-05T18:45:49.852Z,1.70
2022-08-05T18:48:31.048Z,1.50
2022-08-05T18:52:05.107Z,1.60
2022-08-05T18:54:05.645Z,1.50
2022-08-05T18:56:33.171Z,1.10
2022-08-05T18:59:01.724Z,1.02
2022-08-05T19:01:47.195Z,0.80
2022-08-05T19:04:15.050Z,0.73
2022-08-05T19:06:53.717Z,0.70
2022-08-05T19:09:21.120Z,0.77
2022-08-05T19:11:59.916Z,0.90
2022-08-05T19:14:37.930Z,1.00
2022-08-05T19:17:16.507Z,0.80
2022-08-05T19:19:47.026Z,0.80
2022-08-05T19:22:17.067Z,0.80
2022-08-05T19:24:55.952Z,1.15
2022-08-05T19:27:27.846Z,0.70
2022-08-05T19:29:57.658Z,0.95
2022-08-05T19:32:26.096Z,0.80
2022-08-05T19:34:55.777Z,0.80
2022-08-05T19:37:35.231Z,0.85
2022-08-05T19:40:11.193Z,0.70
2022-08-05T19:42:38.874Z,0.80
2022-08-05T19:45:07.191Z,0.80
2022-08-05T19:47:37.636Z,0.85
2022-08-05T19:50:06.180Z,0.77
2022-08-05T19:52:34.738Z,0.80
2022-08-05T19:55:06.959Z,0.70
2022-08-05T19:58:19.425Z,0.90
2022-08-05T20:00:36.372Z,0.73
2022-08-05T20:03:08.494Z,0.73
2022-08-05T20:05:43.430Z,0.77
2022-08-05T20:08:17.520Z,0.70
2022-08-05T20:10:44.206Z,0.77
2022-08-05T20:13:16.197Z,0.98
2022-08-05T20:15:51.840Z,0.70
2022-08-05T20:18:33.408Z,1.00
2022-08-05T20:21:05.036Z,0.73
2022-08-05T20:23:40.147Z,0.65
2022-08-05T20:26:25.252Z,0.80
2022-08-05T20:28:55.914Z,0.90
2022-08-05T20:31:37.299Z,0.93
2022-08-05T20:34:12.448Z,0.77
2022-08-05T20:36:43.439Z,1.08
2022-08-05T20:39:13.005Z,1.02
2022-08-05T20:41:44.190Z,0.82
2022-08-05T20:44:19.354Z,0.90
2022-08-05T20:47:01.296Z,0.98
2022-08-05T20:49:28.116Z,0.90
2022-08-05T20:51:57.242Z,0.95
2022-08-05T20:54:43.025Z,0.90
2022-08-05T20:57:41.928Z,0.90
2022-08-05T21:00:21.298Z,1.05
2022-08-05T21:02:56.955Z,1.00
2022-08-05T21:05:24.643Z,1.17
2022-08-05T21:07:52.214Z,1.00
2022-08-05T21:10:19.526Z,1.20
2022-08-05T21:13:08.856Z,1.00
2022-08-05T21:15:33.911Z,1.10
2022-08-05T21:18:00.830Z,1.13
2022-08-05T21:20:33.170Z,1.17
2022-08-05T21:23:00.936Z,1.00
2022-08-05T21:25:33.736Z,1.13
2022-08-05T21:28:01.996Z,1.10
2022-08-05T21:30:28.665Z,1.10
2022-08-05T21:32:55.356Z,1.00
2022-08-05T21:35:29.775Z,1.10
2022-08-05T21:37:57.439Z,0.77
2022-08-05T21:40:24.839Z,0.95
2022-08-05T21:42:53.556Z,0.90
2022-08-05T21:45:24.472Z,1.08
2022-08-05T21:47:56.594Z,1.00
2022-08-05T21:50:27.496Z,1.40
2022-08-05T21:52:58.739Z,1.17
2022-08-05T21:55:42.883Z,1.05
2022-08-05T21:58:19.249Z,1.10
2022-08-05T22:00:50.947Z,1.10
2022-08-05T22:03:48.285Z,1.10
2022-08-05T22:06:06.313Z,1.00
2022-08-05T22:08:35.006Z,1.00
2022-08-05T22:11:01.633Z,1.13
2022-08-05T22:14:18.331Z,1.00
2022-08-05T22:16:39.490Z,1.10
2022-08-05T22:19:02.383Z,1.10
2022-08-05T22:21:29.139Z,1.20
2022-08-05T22:24:39.711Z,1.02
2022-08-05T22:29:48.085Z,1.40
2022-08-05T22:32:17.195Z,1.00
2022-08-05T22:34:44.439Z,1.10
2022-08-05T22:37:12.749Z,1.08
2022-08-05T22:39:39.684Z,1.17
2022-08-05T22:42:12.734Z,1.33
2022-08-05T22:44:48.294Z,1.27
2022-08-05T22:47:28.972Z,1.40
2022-08-05T22:50:19.178Z,1.30
2022-08-05T22:52:44.962Z,1.30
2022-08-05T22:55:19.257Z,1.20
2022-08-05T23:00:18.315Z,1.15
2022-08-05T23:02:48.285Z,1.40
2022-08-05T23:05:16.307Z,1.30
2022-08-05T23:07:48.253Z,1.50
2022-08-05T23:10:20.280Z,1.30
2022-08-05T23:12:51.697Z,1.60
2022-08-05T23:15:22.460Z,1.55
2022-08-05T23:20:28.585Z,1.35
2022-08-05T23:22:55.901Z,1.48
2022-08-05T23:25:54.557Z,1.70
2022-08-05T23:28:12.022Z,1.45
2022-08-05T23:30:39.811Z,1.63
2022-08-05T23:33:16.387Z,1.45
2022-08-05T23:35:49.999Z,1.67
2022-08-05T23:38:16.901Z,1.90
2022-08-05T23:40:49.463Z,1.60
2022-08-05T23:43:24.811Z,1.50
2022-08-05T23:46:04.203Z,1.83
2022-08-05T23:48:30.905Z,1.90
2022-08-05T23:50:58.668Z,1.52
2022-08-05T23:53:28.354Z,1.40
2022-08-05T23:56:12.778Z,1.70
2022-08-05T23:58:46.756Z,1.80
